Time;durP1;ratioP1;P1;durP2;ratioP2;P2;SDS_P1;SDS_P2;PMS_P1;PMS_P2;Temp;Humidity;BMP_temperature;BMP_pressure;BME280_temperature;BME280_humidity;BME280_pressure;Samples;Min_cycle;Max_cycle;Signal;HPM_P1;HPM_P2
2024/03/01 00:01:24;;;;;;;0.10;0.10;;;;;;;;;;5029293;28;20471;-94
2024/03/01 00:03:50;;;;;;;0.10;0.10;;;;;;;;;;5031626;28;20571;-93
2024/03/01 00:06:16;;;;;;;0.10;0.10;;;;;;;;;;5028676;28;20033;-94
2024/03/01 00:08:42;;;;;;;0.10;0.10;;;;;;;;;;5027716;28;20035;-92
2024/03/01 00:11:08;;;;;;;0.10;0.10;;;;;;;;;;5026311;28;20033;-93
2024/03/01 00:13:34;;;;;;;0.00;0.00;;;;;;;;;;5030830;28;20041;-92
2024/03/01 00:16:00;;;;;;;0.10;0.10;;;;;;;;;;5031929;28;20032;-92
2024/03/01 00:18:26;;;;;;;0.10;0.10;;;;;;;;;;5030342;28;20039;-92
2024/03/01 00:20:52;;;;;;;0.10;0.10;;;;;;;;;;5033606;28;20337;-92
2024/03/01 00:23:18;;;;;;;0.10;0.10;;;;;;;;;;5027203;28;20089;-93
2024/03/01 00:25:45;;;;;;;0.10;0.10;;;;;;;;;;5033477;28;20510;-93
2024/03/01 00:28:11;;;;;;;0.10;0.10;;;;;;;;;;5032210;28;20030;-92
2024/03/01 00:30:37;;;;;;;0.00;0.00;;;;;;;;;;5023778;28;20752;-92
2024/03/01 00:33:03;;;;;;;0.10;0.10;;;;;;;;;;5030228;28;20116;-92
2024/03/01 00:35:29;;;;;;;0.10;0.10;;;;;;;;;;5031864;28;20039;-93
2024/03/01 00:37:55;;;;;;;0.10;0.10;;;;;;;;;;5031845;28;20214;-92
2024/03/01 00:40:22;;;;;;;0.10;0.10;;;;;;;;;;5030986;28;20043;-92
2024/03/01 00:42:48;;;;;;;0.05;0.05;;;;;;;;;;5027478;28;20021;-93
2024/03/01 00:45:14;;;;;;;0.10;0.10;;;;;;;;;;5028987;28;20029;-94
2024/03/01 00:47:49;;;;;;;0.10;0.10;;;5.90;99.90;;;;;;5031979;28;20027;-94
2024/03/01 00:50:21;;;;;;;0.10;0.10;;;5.90;99.90;;;;;;5030497;28;20127;-92
2024/03/01 00:52:47;;;;;;;0.10;0.10;;;;;;;;;;5042448;28;20041;-92
2024/03/01 00:55:13;;;;;;;0.10;0.10;;;;;;;;;;5028755;28;20052;-92
2024/03/01 00:57:39;;;;;;;0.10;0.10;;;;;;;;;;5028990;28;20028;-92
2024/03/01 01:00:08;;;;;;;0.10;0.10;;;;;;;;;;5030238;28;20414;-92
2024/03/01 01:02:34;;;;;;;0.10;0.10;;;;;;;;;;5032443;28;20084;-93
2024/03/01 01:05:00;;;;;;;0.10;0.10;;;;;;;;;;5029945;28;20029;-93
2024/03/01 01:07:26;;;;;;;0.10;0.10;;;;;;;;;;5028994;28;20037;-92
2024/03/01 01:09:52;;;;;;;0.10;0.10;;;;;;;;;;5031982;28;20492;-93
2024/03/01 01:12:18;;;;;;;0.10;0.10;;;;;;;;;;5032289;28;20076;-92
2024/03/01 01:14:44;;;;;;;0.10;0.10;;;;;;;;;;5030974;28;20503;-92
2024/03/01 01:17:10;;;;;;;0.10;0.10;;;;;;;;;;5031180;28;20068;-92
2024/03/01 01:19:36;;;;;;;0.10;0.10;;;;;;;;;;5018836;28;20026;-93
2024/03/01 01:22:02;;;;;;;0.10;0.10;;;;;;;;;;5030363;28;20025;-93
2024/03/01 01:24:28;;;;;;;0.10;0.10;;;;;;;;;;5032167;28;20047;-93
2024/03/01 01:26:54;;;;;;;0.10;0.10;;;;;;;;;;5027521;28;20394;-93
2024/03/01 01:29:20;;;;;;;0.10;0.10;;;;;;;;;;5030943;28;20041;-93
2024/03/01 01:31:46;;;;;;;0.10;0.10;;;;;;;;;;5030412;28;20526;-92
2024/03/01 01:34:12;;;;;;;0.10;0.10;;;;;;;;;;5030793;28;20422;-93
2024/03/01 01:36:40;;;;;;;0.10;0.10;;;;;;;;;;5024302;28;20273;-93
2024/03/01 01:39:07;;;;;;;0.10;0.10;;;;;;;;;;5043568;28;20033;-92
2024/03/01 01:41:34;;;;;;;0.10;0.10;;;;;;;;;;5028732;28;20029;-94
2024/03/01 01:44:00;;;;;;;0.10;0.10;;;;;;;;;;5031325;28;20171;-93
2024/03/01 01:46:26;;;;;;;0.10;0.10;;;;;;;;;;5029354;28;20120;-94
2024/03/01 01:48:52;;;;;;;0.10;0.10;;;;;;;;;;5030339;28;20213;-92
2024/03/01 01:51:19;;;;;;;0.10;0.10;;;;;;;;;;5032257;28;20036;-93
2024/03/01 01:53:45;;;;;;;0.10;0.10;;;;;;;;;;5033579;28;20068;-92
2024/03/01 01:56:13;;;;;;;0.10;0.10;;;5.80;99.90;;;;;;5034697;28;20036;-93
2024/03/01 01:58:39;;;;;;;0.10;0.10;;;;;;;;;;5033267;28;20025;-93
2024/03/01 02:01:07;;;;;;;0.10;0.10;;;;;;;;;;5033521;28;20710;-93
2024/03/01 02:03:33;;;;;;;0.10;0.10;;;;;;;;;;5032160;28;20025;-94
2024/03/01 02:06:01;;;;;;;0.10;0.10;;;;;;;;;;5032737;28;20033;-93
2024/03/01 02:08:27;;;;;;;0.10;0.10;;;;;;;;;;5033490;28;20033;-92
2024/03/01 02:10:52;;;;;;;0.10;0.10;;;;;;;;;;5030183;28;20044;-93
2024/03/01 02:13:19;;;;;;;0.10;0.10;;;;;;;;;;5028222;28;20041;-93
2024/03/01 02:15:45;;;;;;;0.10;0.10;;;;;;;;;;5030339;28;20029;-93
2024/03/01 02:18:11;;;;;;;0.10;0.10;;;;;;;;;;5026224;28;20048;-93
2024/03/01 02:20:40;;;;;;;0.10;0.10;;;5.30;99.90;;;;;;5022495;28;20037;-92
2024/03/01 02:23:13;;;;;;;0.10;0.10;;;5.40;99.90;;;;;;5028809;28;20029;-93
2024/03/01 02:25:39;;;;;;;0.10;0.10;;;;;;;;;;5033298;28;20499;-93
2024/03/01 02:28:05;;;;;;;0.10;0.10;;;;;;;;;;5031424;28;20056;-93
2024/03/01 02:30:30;;;;;;;0.10;0.10;;;;;;;;;;5026773;28;20025;-93
2024/03/01 02:32:56;;;;;;;0.10;0.10;;;;;;;;;;5031303;28;20037;-93
2024/03/01 02:35:22;;;;;;;0.10;0.10;;;;;;;;;;5030920;28;20021;-93
2024/03/01 02:37:48;;;;;;;0.10;0.10;;;;;;;;;;5027757;28;20112;-93
2024/03/01 02:40:14;;;;;;;0.10;0.10;;;;;;;;;;5029997;28;20037;-93
2024/03/01 02:42:40;;;;;;;0.10;0.10;;;;;;;;;;5031296;28;20029;-93
2024/03/01 02:45:07;;;;;;;0.08;0.08;;;;;;;;;;5030373;28;20036;-93
2024/03/01 02:47:33;;;;;;;0.10;0.10;;;;;;;;;;5031551;28;20025;-93
2024/03/01 02:49:59;;;;;;;0.10;0.10;;;;;;;;;;5033977;28;20060;-92
2024/03/01 02:52:25;;;;;;;0.10;0.10;;;;;;;;;;5031485;28;20043;-93
2024/03/01 02:54:51;;;;;;;0.10;0.10;;;;;;;;;;5041303;28;20036;-93
2024/03/01 02:57:17;;;;;;;0.10;0.10;;;;;;;;;;5030917;28;20029;-93
2024/03/01 02:59:43;;;;;;;0.10;0.10;;;;;;;;;;5030484;28;20071;-93
2024/03/01 03:02:09;;;;;;;0.00;0.00;;;;;;;;;;5025031;28;20026;-93
2024/03/01 03:04:35;;;;;;;0.10;0.10;;;;;;;;;;5034382;28;20392;-93
2024/03/01 03:07:01;;;;;;;0.08;0.08;;;;;;;;;;5049308;28;20044;-95
2024/03/01 03:09:28;;;;;;;0.10;0.10;;;;;;;;;;5040421;28;20033;-93
2024/03/01 03:11:54;;;;;;;0.10;0.10;;;;;;;;;;5032969;28;20029;-93
2024/03/01 03:14:20;;;;;;;0.10;0.10;;;;;;;;;;5031263;28;20036;-92
2024/03/01 03:16:46;;;;;;;0.10;0.10;;;;;;;;;;5029177;28;20504;-93
2024/03/01 03:19:12;;;;;;;0.10;0.10;;;;;;;;;;5032186;28;20037;-93
2024/03/01 03:21:38;;;;;;;0.10;0.10;;;;;;;;;;5032949;28;20534;-93
2024/03/01 03:24:04;;;;;;;0.10;0.10;;;;;;;;;;5032334;28;20029;-93
2024/03/01 03:26:30;;;;;;;0.10;0.10;;;;;;;;;;5035044;28;20052;-93
2024/03/01 03:28:56;;;;;;;0.03;0.03;;;;;;;;;;5031611;28;20068;-92
2024/03/01 03:31:22;;;;;;;0.10;0.10;;;;;;;;;;5032628;28;20057;-93
2024/03/01 03:33:47;;;;;;;0.10;0.10;;;;;;;;;;5031925;28;20063;-93
2024/03/01 03:36:13;;;;;;;0.10;0.10;;;;;;;;;;5039754;28;20479;-93
2024/03/01 03:38:39;;;;;;;0.10;0.10;;;;;;;;;;5034826;28;20486;-95
2024/03/01 03:41:06;;;;;;;0.10;0.10;;;;;;;;;;5032121;28;20498;-94
2024/03/01 03:43:32;;;;;;;0.10;0.10;;;;;;;;;;5028822;28;20526;-92
2024/03/01 03:45:58;;;;;;;0.05;0.05;;;;;;;;;;5048441;28;20040;-93
2024/03/01 03:48:24;;;;;;;0.10;0.10;;;;;;;;;;5033966;28;20025;-93
2024/03/01 03:50:50;;;;;;;0.10;0.10;;;;;;;;;;5030827;28;20029;-94
2024/03/01 03:53:16;;;;;;;0.10;0.10;;;;;;;;;;5033793;28;20032;-93
2024/03/01 03:55:42;;;;;;;0.10;0.10;;;;;;;;;;5051492;28;20316;-94
2024/03/01 03:58:08;;;;;;;0.10;0.10;;;;;;;;;;5021325;28;20087;-93
2024/03/01 04:00:35;;;;;;;0.10;0.10;;;;;;;;;;5017065;28;20051;-92
2024/03/01 04:03:01;;;;;;;0.03;0.03;;;;;;;;;;5031588;28;20033;-93
2024/03/01 04:10:33;;;;;;;0.10;0.10;;;6.20;99.90;;;;;;5045131;28;20052;-90
2024/03/01 04:13:00;;;;;;;0.00;0.00;;;;;;;;;;5030948;28;20483;-87
2024/03/01 04:15:26;;;;;;;0.10;0.10;;;;;;;;;;5030883;28;20055;-88
2024/03/01 04:17:52;;;;;;;0.08;0.08;;;;;;;;;;5032545;28;20053;-88
2024/03/01 04:20:18;;;;;;;0.10;0.10;;;;;;;;;;5032731;28;20114;-89
2024/03/01 04:22:44;;;;;;;0.10;0.10;;;;;;;;;;5031593;28;20020;-88
2024/03/01 04:25:10;;;;;;;0.00;0.00;;;;;;;;;;5031393;28;20029;-89
2024/03/01 04:27:38;;;;;;;0.00;0.00;;;;;;;;;;5032464;28;20029;-89
2024/03/01 04:30:08;;;;;;;0.00;0.00;;;6.10;99.90;;;;;;5033813;28;20033;-90
2024/03/01 04:32:34;;;;;;;0.10;0.10;;;;;;;;;;5032592;28;20029;-88
2024/03/01 04:35:00;;;;;;;0.00;0.00;;;;;;;;;;5031373;28;20402;-88
2024/03/01 04:37:26;;;;;;;0.10;0.10;;;;;;;;;;5028577;28;20661;-91
2024/03/01 04:39:52;;;;;;;0.10;0.10;;;;;;;;;;5029500;28;20036;-88
2024/03/01 04:42:18;;;;;;;0.00;0.00;;;;;;;;;;5032282;28;20101;-88
2024/03/01 04:44:43;;;;;;;0.10;0.10;;;5.90;99.90;;;;;;5032488;28;20092;-88
2024/03/01 04:47:09;;;;;;;0.10;0.10;;;;;;;;;;5031034;28;20483;-88
2024/03/01 04:49:35;;;;;;;0.10;0.10;;;;;;;;;;5035465;28;20040;-88
2024/03/01 04:52:01;;;;;;;0.10;0.10;;;;;;;;;;5030999;28;20032;-89
2024/03/01 04:54:27;;;;;;;0.10;0.10;;;;;;;;;;5031451;28;20029;-89
2024/03/01 04:56:53;;;;;;;0.10;0.10;;;;;;;;;;5030957;28;20087;-88
2024/03/01 04:59:19;;;;;;;0.10;0.10;;;;;;;;;;5030039;28;20052;-88
2024/03/01 05:01:44;;;;;;;0.10;0.10;;;5.90;99.90;;;;;;5028661;28;20399;-89
2024/03/01 05:04:10;;;;;;;0.03;0.03;;;;;;;;;;5031482;28;20025;-89
2024/03/01 05:06:37;;;;;;;0.10;0.10;;;;;;;;;;5028394;28;20075;-89
2024/03/01 05:09:03;;;;;;;0.10;0.10;;;;;;;;;;5030569;28;20104;-89
2024/03/01 05:11:34;;;;;;;0.10;0.10;;;;;;;;;;5028988;28;20056;-91
2024/03/01 05:14:00;;;;;;;0.10;0.10;;;5.50;99.90;;;;;;5030143;28;20487;-89
2024/03/01 05:16:26;;;;;;;0.03;0.03;;;;;;;;;;5024333;28;20217;-91
2024/03/01 05:18:52;;;;;;;0.10;0.10;;;;;;;;;;5032597;28;20033;-89
2024/03/01 05:21:22;;;;;;;0.10;0.10;;;;;;;;;;5030738;28;20063;-89
2024/03/01 05:23:48;;;;;;;0.10;0.10;;;;;;;;;;5032907;28;20045;-91
2024/03/01 05:26:14;;;;;;;0.00;0.00;;;;;;;;;;5032128;28;20432;-89
2024/03/01 05:28:39;;;;;;;0.00;0.00;;;5.80;99.90;;;;;;5036298;28;20059;-90
2024/03/01 05:31:05;;;;;;;0.10;0.10;;;;;;;;;;5036711;28;20115;-88
2024/03/01 05:33:31;;;;;;;0.10;0.10;;;;;;;;;;5035390;28;20121;-89
2024/03/01 05:35:57;;;;;;;0.10;0.10;;;;;;;;;;5035055;28;20068;-88
2024/03/01 05:38:23;;;;;;;0.10;0.10;;;;;;;;;;5033018;28;20029;-89
2024/03/01 05:40:49;;;;;;;0.10;0.10;;;;;;;;;;5031790;28;20396;-86
2024/03/01 05:43:15;;;;;;;0.10;0.10;;;;;;;;;;5036498;28;20029;-89
2024/03/01 05:45:41;;;;;;;0.10;0.10;;;;;;;;;;5035163;28;20033;-89
2024/03/01 05:48:11;;;;;;;0.10;0.10;;;;;;;;;;5030628;28;20079;-89
2024/03/01 05:50:38;;;;;;;0.10;0.10;;;;;;;;;;5035943;28;20025;-89
2024/03/01 05:53:04;;;;;;;0.10;0.10;;;;;;;;;;5032246;28;20187;-89
2024/03/01 05:55:30;;;;;;;0.08;0.08;;;;;;;;;;5034754;28;20032;-90
2024/03/01 05:57:56;;;;;;;0.10;0.10;;;;;;;;;;5036505;28;20033;-88
2024/03/01 06:00:25;;;;;;;0.10;0.10;;;;;;;;;;5034067;28;20110;-89
2024/03/01 06:02:51;;;;;;;0.10;0.10;;;5.60;99.90;;;;;;5029871;28;20053;-89
2024/03/01 06:05:17;;;;;;;0.10;0.10;;;;;;;;;;5031064;28;20035;-90
2024/03/01 06:07:44;;;;;;;0.10;0.10;;;;;;;;;;5033969;28;20072;-88
2024/03/01 06:10:10;;;;;;;0.10;0.10;;;;;;;;;;5051745;28;20518;-89
2024/03/01 06:12:36;;;;;;;0.10;0.10;;;;;;;;;;5038768;28;20016;-89
2024/03/01 06:15:04;;;;;;;0.10;0.10;;;;;;;;;;5037213;28;20479;-89
2024/03/01 06:17:30;;;;;;;0.10;0.10;;;5.40;99.90;;;;;;5036147;28;20025;-89
2024/03/01 06:19:55;;;;;;;0.00;0.00;;;5.40;99.90;;;;;;5053848;28;20047;-89
2024/03/01 06:22:21;;;;;;;0.00;0.00;;;;;;;;;;5035029;28;20129;-89
2024/03/01 06:24:47;;;;;;;0.10;0.10;;;5.60;99.90;;;;;;5040265;28;20029;-89
2024/03/01 06:27:13;;;;;;;0.10;0.10;;;;;;;;;;5033412;28;20044;-89
2024/03/01 06:29:39;;;;;;;0.00;0.00;;;;;;;;;;5041078;28;20104;-88
2024/03/01 06:32:05;;;;;;;0.10;0.10;;;;;;;;;;5036989;28;20039;-89
2024/03/01 06:34:31;;;;;;;0.10;0.10;;;;;;;;;;5036471;28;20058;-90
2024/03/01 06:36:57;;;;;;;0.10;0.10;;;;;;;;;;5036910;28;20461;-89
2024/03/01 06:39:23;;;;;;;0.10;0.10;;;6.10;99.90;;;;;;5040448;28;20025;-89
2024/03/01 06:41:48;;;;;;;0.10;0.10;;;;;;;;;;5036241;28;20017;-88
2024/03/01 06:44:14;;;;;;;0.10;0.10;;;;;;;;;;5035727;28;20072;-88
2024/03/01 06:46:40;;;;;;;0.10;0.10;;;;;;;;;;5032668;28;20032;-89
2024/03/01 06:49:08;;;;;;;0.10;0.10;;;;;;;;;;5037458;28;20021;-88
2024/03/01 06:51:34;;;;;;;0.10;0.10;;;;;;;;;;5035355;28;20025;-88
2024/03/01 06:53:59;;;;;;;0.10;0.10;;;6.70;99.90;;;;;;5037031;28;20035;-88
2024/03/01 06:56:25;;;;;;;0.00;0.00;;;;;;;;;;5041515;28;20025;-88
2024/03/01 06:58:51;;;;;;;0.10;0.10;;;;;;;;;;5054117;28;20029;-88
2024/03/01 07:01:17;;;;;;;0.10;0.10;;;;;;;;;;5036730;28;20036;-88
2024/03/01 07:03:43;;;;;;;0.10;0.10;;;7.10;99.90;;;;;;5059669;28;20096;-88
2024/03/01 07:06:09;;;;;;;0.10;0.10;;;;;;;;;;5054447;28;20052;-87
2024/03/01 07:08:35;;;;;;;0.10;0.10;;;;;;;;;;5036367;28;20025;-90
2024/03/01 07:11:03;;;;;;;0.10;0.10;;;;;;;;;;5055738;28;20385;-89
2024/03/01 07:13:29;;;;;;;0.10;0.10;;;;;;;;;;5033887;28;20629;-89
2024/03/01 07:15:54;;;;;;;0.10;0.10;;;7.50;99.90;;;;;;5033960;28;20071;-89
2024/03/01 07:18:20;;;;;;;0.05;0.05;;;7.50;99.90;;;;;;5036608;28;20059;-89
2024/03/01 07:20:45;;;;;;;0.10;0.10;;;7.60;99.90;;;;;;5035699;28;20029;-89
2024/03/01 07:23:11;;;;;;;0.10;0.10;;;;;;;;;;5039170;28;20024;-88
2024/03/01 07:25:37;;;;;;;0.10;0.10;;;;;;;;;;5035839;28;20033;-88
2024/03/01 07:28:03;;;;;;;0.10;0.10;;;7.70;99.90;;;;;;5039782;28;20016;-88
2024/03/01 07:30:28;;;;;;;0.10;0.10;;;7.90;99.90;;;;;;5039443;28;20033;-89
2024/03/01 07:32:54;;;;;;;0.10;0.10;;;7.80;99.90;;;;;;5037212;28;20029;-90
2024/03/01 07:35:20;;;;;;;0.10;0.10;;;;;;;;;;5036933;28;21029;-88
2024/03/01 07:37:46;;;;;;;0.10;0.10;;;;;;;;;;5039735;28;20036;-89
2024/03/01 07:40:12;;;;;;;0.10;0.10;;;8.00;99.90;;;;;;5052456;28;20033;-89
2024/03/01 07:42:38;;;;;;;0.10;0.10;;;;;;;;;;5037511;28;20025;-88
2024/03/01 07:45:05;;;;;;;0.10;0.10;;;8.20;99.90;;;;;;5048844;28;20032;-89
2024/03/01 07:47:31;;;;;;;0.10;0.10;;;8.20;99.90;;;;;;5034980;28;20029;-88
2024/03/01 07:49:57;;;;;;;0.10;0.10;;;8.30;99.90;;;;;;5035146;28;20029;-90
2024/03/01 07:52:27;;;;;;;0.10;0.10;;;8.40;99.90;;;;;;5028633;28;20025;-88
2024/03/01 07:54:53;;;;;;;0.00;0.00;;;;;;;;;;5023683;28;20563;-89
2024/03/01 07:57:19;;;;;;;0.10;0.10;;;;;;;;;;5030622;28;20021;-90
2024/03/01 07:59:45;;;;;;;0.10;0.10;;;;;;;;;;5032509;28;20040;-89
2024/03/01 08:02:11;;;;;;;0.10;0.10;;;;;;;;;;5032507;28;20029;-89
2024/03/01 08:04:37;;;;;;;0.10;0.10;;;;;;;;;;5033886;28;20395;-91
2024/03/01 08:07:06;;;;;;;0.10;0.10;;;;;;;;;;5031924;28;20116;-88
2024/03/01 08:09:36;;;;;;;0.00;0.00;;;;;;;;;;5031996;28;20048;-89
2024/03/01 08:12:04;;;;;;;0.10;0.10;;;;;;;;;;5034161;28;20078;-90
2024/03/01 08:14:34;;;;;;;0.00;0.00;;;9.60;99.90;;;;;;5033308;28;20521;-89
2024/03/01 08:17:00;;;;;;;0.00;0.00;;;;;;;;;;5034671;28;20486;-90
2024/03/01 08:19:35;;;;;;;0.00;0.00;;;9.60;99.90;;;;;;5033441;28;20035;-88
2024/03/01 08:22:09;;;;;;;0.00;0.00;;;9.60;99.90;;;;;;5036124;28;20035;-89
2024/03/01 08:24:36;;;;;;;0.00;0.00;;;;;;;;;;5036743;28;20100;-89
2024/03/01 08:27:02;;;;;;;0.00;0.00;;;;;;;;;;5025937;28;20463;-90
2024/03/01 08:29:28;;;;;;;0.00;0.00;;;;;;;;;;5032523;28;20029;-89
2024/03/01 08:31:54;;;;;;;0.00;0.00;;;;;;;;;;5036215;28;20044;-90
2024/03/01 08:34:25;;;;;;;0.10;0.10;;;9.70;99.90;;;;;;5031891;28;20021;-90
2024/03/01 08:36:52;;;;;;;0.10;0.10;;;;;;;;;;5033764;28;20079;-90
2024/03/01 08:39:19;;;;;;;0.10;0.10;;;9.90;99.90;;;;;;5031660;28;20575;-89
2024/03/01 08:41:50;;;;;;;0.10;0.10;;;9.90;99.90;;;;;;5032939;28;20031;-89
2024/03/01 08:45:02;;;;;;;0.00;0.00;;;10.00;99.90;;;;;;5028459;28;20049;-90
2024/03/01 08:47:39;;;;;;;0.10;0.10;;;10.10;99.90;;;;;;5023037;28;20037;-89
2024/03/01 08:50:20;;;;;;;0.10;0.10;;;10.20;99.90;;;;;;5030204;28;20028;-90
2024/03/01 08:52:47;;;;;;;0.00;0.00;;;;;;;;;;5028566;28;20016;-87
2024/03/01 08:55:13;;;;;;;0.00;0.00;;;;;;;;;;5030633;28;20021;-89
2024/03/01 08:57:39;;;;;;;0.00;0.00;;;;;;;;;;5030087;28;20483;-89
2024/03/01 09:00:38;;;;;;;0.00;0.00;;;10.30;99.90;;;;;;5036479;28;20041;-89
2024/03/01 09:03:05;;;;;;;0.00;0.00;;;10.40;99.90;;;;;;5036665;28;20123;-89
2024/03/01 09:05:32;;;;;;;0.00;0.00;;;;;;;;;;5036755;28;20021;-89
2024/03/01 09:08:00;;;;;;;0.00;0.00;;;10.40;99.90;;;;;;5034412;28;20090;-90
2024/03/01 09:10:30;;;;;;;0.00;0.00;;;10.40;99.90;;;;;;5034703;28;20044;-90
2024/03/01 09:12:57;;;;;;;0.00;0.00;;;;;;;;;;5038392;28;20352;-89
2024/03/01 09:15:24;;;;;;;0.00;0.00;;;10.50;99.90;;;;;;5055843;28;20051;-90
2024/03/01 09:17:51;;;;;;;0.00;0.00;;;;;;;;;;5037924;28;20227;-88
2024/03/01 09:20:41;;;;;;;0.00;0.00;;;;;;;;;;5039737;28;20029;-90
2024/03/01 09:23:12;;;;;;;0.03;0.03;;;10.60;99.90;;;;;;5051531;28;20036;-89
2024/03/01 09:25:41;;;;;;;0.00;0.00;;;10.60;99.90;;;;;;5036075;28;20028;-90
2024/03/01 09:28:11;;;;;;;0.00;0.00;;;10.90;99.90;;;;;;5034328;28;20421;-89
2024/03/01 09:30:38;;;;;;;0.00;0.00;;;;;;;;;;5037945;28;20029;-90
2024/03/01 09:33:12;;;;;;;0.00;0.00;;;11.20;99.90;;;;;;5038076;28;20096;-89
2024/03/01 09:35:38;;;;;;;0.00;0.00;;;;;;;;;;5038949;28;20514;-89
2024/03/01 09:38:05;;;;;;;0.00;0.00;;;;;;;;;;5044115;28;20055;-91
2024/03/01 09:40:37;;;;;;;0.00;0.00;;;;;;;;;;5041154;28;20049;-90
2024/03/01 09:43:12;;;;;;;0.00;0.00;;;;;;;;;;5042573;28;20087;-91
2024/03/01 09:45:51;;;;;;;0.00;0.00;;;;;;;;;;5041556;28;20056;-91
2024/03/01 09:48:36;;;;;;;0.00;0.00;;;;;;;;;;5056503;28;20035;-92
2024/03/01 09:51:11;;;;;;;0.00;0.00;;;;;;;;;;5042928;28;20029;-92
2024/03/01 09:53:46;;;;;;;0.00;0.00;;;;;;;;;;5042690;28;20036;-91
2024/03/01 09:56:20;;;;;;;0.00;0.00;;;;;;;;;;5040120;28;20029;-91
2024/03/01 09:58:52;;;;;;;0.00;0.00;;;;;;;;;;5038584;28;20032;-91
2024/03/01 10:01:25;;;;;;;0.00;0.00;;;;;;;;;;5041416;28;20487;-90
2024/03/01 10:04:09;;;;;;;0.00;0.00;;;;;;;;;;5036625;28;20029;-92
2024/03/01 10:06:51;;;;;;;0.00;0.00;;;;;;;;;;5057875;28;20147;-91
2024/03/01 10:09:24;;;;;;;0.00;0.00;;;;;;;;;;5039543;28;20550;-90
2024/03/01 10:27:37;;;;;;;0.00;0.00;;;;;;;;;;5055432;28;20533;-90
2024/03/01 10:30:18;;;;;;;0.00;0.00;;;;;;;;;;5038244;28;20035;-91
2024/03/01 10:33:03;;;;;;;0.00;0.00;;;;;;;;;;5017742;28;20045;-92
2024/03/01 10:35:34;;;;;;;0.00;0.00;;;;;;;;;;5026659;28;20053;-91
2024/03/01 10:38:00;;;;;;;0.00;0.00;;;;;;;;;;5089814;22;20016;-90
2024/03/01 10:40:30;;;;;;;0.10;0.10;;;;;;;;;;5030780;28;20041;-90
2024/03/01 10:43:03;;;;;;;0.00;0.00;;;;;;;;;;5016167;28;20034;-92
2024/03/01 10:45:35;;;;;;;0.00;0.00;;;;;;;;;;5030399;28;20053;-92
2024/03/01 10:48:03;;;;;;;0.00;0.00;;;;;;;;;;5026919;28;20036;-91
2024/03/01 10:50:32;;;;;;;0.00;0.00;;;;;;;;;;5037287;28;20083;-90
2024/03/01 10:53:05;;;;;;;0.00;0.00;;;;;;;;;;5018088;28;20056;-87
2024/03/01 10:55:34;;;;;;;0.00;0.00;;;;;;;;;;5033810;28;20029;-91
2024/03/01 10:58:02;;;;;;;0.00;0.00;;;;;;;;;;5032157;28;20037;-92
2024/03/01 11:00:28;;;;;;;0.00;0.00;;;;;;;;;;5031424;28;20064;-91
2024/03/01 11:03:01;;;;;;;0.00;0.00;;;;;;;;;;5019697;28;20033;-90
2024/03/01 11:05:32;;;;;;;0.00;0.00;;;;;;;;;;5019675;28;20025;-89
2024/03/01 11:08:07;;;;;;;0.00;0.00;;;;;;;;;;5015015;28;20037;-89
2024/03/01 11:10:48;;;;;;;0.00;0.00;;;;;;;;;;5038336;28;20033;-90
2024/03/01 11:13:17;;;;;;;0.00;0.00;;;;;;;;;;5033686;28;20080;-93
2024/03/01 11:15:44;;;;;;;0.00;0.00;;;;;;;;;;5016708;28;20040;-90
2024/03/01 11:18:12;;;;;;;0.00;0.00;;;;;;;;;;5017150;28;20100;-91
2024/03/01 11:20:50;;;;;;;0.00;0.00;;;;;;;;;;5022963;28;20100;-90
2024/03/01 11:23:20;;;;;;;0.00;0.00;;;;;;;;;;5026733;28;20124;-90
2024/03/01 11:26:05;;;;;;;0.00;0.00;;;;;;;;;;5014234;28;20087;-90
2024/03/01 11:28:32;;;;;;;0.00;0.00;;;;;;;;;;5029921;28;20037;-91
2024/03/01 11:31:04;;;;;;;0.00;0.00;;;;;;;;;;5015315;28;20102;-91
2024/03/01 11:33:34;;;;;;;0.00;0.00;;;;;;;;;;4988518;28;20030;-91
2024/03/01 11:35:59;;;;;;;;;;;;;;;;;;5022590;28;20093;-90
2024/03/01 11:38:28;;;;;;;0.00;0.00;;;;;;;;;;4991537;28;19913;-89
2024/03/01 11:41:13;;;;;;;0.00;0.00;;;;;;;;;;4992746;28;20072;-91
2024/03/01 11:43:57;;;;;;;0.00;0.00;;;;;;;;;;4989407;28;20497;-90
2024/03/01 11:46:43;;;;;;;0.00;0.00;;;;;;;;;;4991346;28;20504;-91
2024/03/01 11:49:15;;;;;;;0.00;0.00;;;;;;;;;;4991400;28;20038;-91
2024/03/01 11:51:54;;;;;;;0.00;0.00;;;;;;;;;;4985746;28;20101;-91
2024/03/01 11:54:35;;;;;;;0.00;0.00;;;;;;;;;;4990890;28;20026;-90
2024/03/01 11:57:05;;;;;;;0.00;0.00;;;;;;;;;;5009455;28;20034;-91
2024/03/01 11:59:39;;;;;;;0.00;0.00;;;;;;;;;;4990709;28;20058;-91
2024/03/01 12:02:17;;;;;;;0.00;0.00;;;;;;;;;;4991592;28;20372;-92
2024/03/01 12:04:58;;;;;;;0.00;0.00;;;;;;;;;;4992224;28;20057;-91
2024/03/01 12:07:30;;;;;;;0.00;0.00;;;;;;;;;;4989723;28;20034;-90
2024/03/01 12:10:15;;;;;;;0.00;0.00;;;;;;;;;;4993374;28;20117;-91
2024/03/01 12:12:56;;;;;;;0.00;0.00;;;;;;;;;;4989332;28;20030;-91
2024/03/01 12:15:29;;;;;;;0.00;0.00;;;;;;;;;;4987103;28;20042;-92
2024/03/01 12:18:07;;;;;;;0.00;0.00;;;;;;;;;;4994148;28;20038;-92
2024/03/01 12:20:36;;;;;;;0.00;0.00;;;;;;;;;;4990979;28;20058;-92
2024/03/01 12:23:18;;;;;;;0.00;0.00;;;;;;;;;;4990709;28;20611;-91
2024/03/01 12:25:43;;;;;;;0.00;0.00;;;;;;;;;;4991610;28;20030;-90
2024/03/01 12:28:24;;;;;;;0.00;0.00;;;;;;;;;;4987662;28;20035;-90
2024/03/01 12:31:09;;;;;;;0.00;0.00;;;;;;;;;;4987447;28;20042;-91
2024/03/01 12:33:47;;;;;;;0.00;0.00;;;;;;;;;;4992518;28;20033;-91
2024/03/01 12:36:31;;;;;;;0.00;0.00;;;;;;;;;;5010167;28;20113;-92
2024/03/01 12:39:00;;;;;;;0.00;0.00;;;;;;;;;;4991793;28;20042;-91
2024/03/01 12:41:27;;;;;;;0.00;0.00;;;;;;;;;;4988642;28;20605;-92
2024/03/01 12:44:13;;;;;;;0.00;0.00;;;;;;;;;;4987230;28;20639;-91
2024/03/01 12:46:54;;;;;;;0.00;0.00;;;;;;;;;;4990652;28;20030;-90
2024/03/01 12:49:39;;;;;;;0.00;0.00;;;;;;;;;;4989297;28;20042;-90
2024/03/01 12:52:26;;;;;;;0.00;0.00;;;;;;;;;;4991866;28;20026;-91
2024/03/01 12:55:12;;;;;;;0.00;0.00;;;;;;;;;;4987903;28;20034;-91
2024/03/01 12:57:41;;;;;;;0.00;0.00;;;;;;;;;;4992472;28;20054;-90
2024/03/01 13:00:13;;;;;;;0.00;0.00;;;;;;;;;;4986448;28;20049;-92
2024/03/01 13:02:56;;;;;;;0.00;0.00;;;;;;;;;;4988198;28;20444;-89
2024/03/01 13:05:27;;;;;;;0.00;0.00;;;;;;;;;;4987278;28;20050;-90
2024/03/01 13:07:57;;;;;;;0.00;0.00;;;;;;;;;;4988126;28;20042;-91
2024/03/01 13:10:24;;;;;;;0.00;0.00;;;;;;;;;;4989028;28;20089;-89
2024/03/01 13:13:26;;;;;;;0.00;0.00;;;;;;;;;;4987306;28;20030;-93
2024/03/01 13:15:59;;;;;;;0.00;0.00;;;;;;;;;;4989669;28;20030;-91
2024/03/01 13:23:55;;;;;;;0.00;0.00;;;;;;;;;;4972843;28;20042;-90
2024/03/01 13:26:48;;;;;;;0.00;0.00;;;;;;;;;;5003420;28;20509;-91
2024/03/01 13:29:19;;;;;;;0.00;0.00;;;;;;;;;;5010047;28;20033;-92
2024/03/01 13:31:52;;;;;;;0.00;0.00;;;;;;;;;;5005935;28;20065;-90
2024/03/01 13:34:20;;;;;;;0.00;0.00;;;;;;;;;;4993388;28;20600;-91
2024/03/01 13:47:18;;;;;;;0.00;0.00;;;;;;;;;;4974630;28;20096;-93
2024/03/01 13:50:08;;;;;;;0.00;0.00;;;;;;;;;;4978328;28;20058;-93
2024/03/01 13:52:49;;;;;;;0.00;0.00;;;;;;;;;;4984495;28;20027;-94
2024/03/01 13:55:16;;;;;;;0.00;0.00;;;;;;;;;;4984739;28;20038;-94
2024/03/01 13:57:48;;;;;;;0.00;0.00;;;;;;;;;;4972016;28;20046;-93
2024/03/01 14:00:35;;;;;;;0.00;0.00;;;;;;;;;;4975886;28;20100;-93
2024/03/01 14:29:22;;;;;;;0.00;0.00;;;;;;;;;;4974659;28;20046;-92
2024/03/01 14:32:25;;;;;;;0.00;0.00;;;13.10;99.90;;;;;;4979365;28;21677;-92
2024/03/01 14:34:52;;;;;;;0.00;0.00;;;;;;;;;;4946565;28;20437;-93
2024/03/01 14:37:31;;;;;;;0.00;0.00;;;12.80;99.90;;;;;;4975767;28;20055;-93
2024/03/01 14:40:11;;;;;;;0.00;0.00;;;12.90;99.90;;;;;;4976379;28;20054;-92
2024/03/01 14:42:50;;;;;;;;;;;12.90;99.90;;;;;;4995472;28;20118;-92
2024/03/01 14:45:21;;;;;;;0.00;0.00;;;12.80;99.90;;;;;;4975395;28;19940;-92
2024/03/01 14:48:32;;;;;;;0.00;0.00;;;12.70;99.90;;;;;;4977086;28;20121;-93
2024/03/01 14:51:03;;;;;;;0.00;0.00;;;;;;;;;;4972764;28;20038;-93
2024/03/01 14:53:34;;;;;;;0.00;0.00;;;;;;;;;;4969884;28;20031;-94
2024/03/01 14:56:00;;;;;;;0.00;0.00;;;;;;;;;;4966840;28;20031;-93
2024/03/01 14:58:26;;;;;;;0.00;0.00;;;;;;;;;;4969745;28;20051;-92
2024/03/01 15:00:52;;;;;;;0.00;0.00;;;;;;;;;;4970771;28;20069;-93
2024/03/01 15:03:20;;;;;;;0.00;0.00;;;;;;;;;;4971547;28;20650;-92
2024/03/01 15:05:46;;;;;;;0.00;0.00;;;;;;;;;;4970217;28;20133;-93
2024/03/01 15:08:18;;;;;;;0.00;0.00;;;;;;;;;;4966581;28;20046;-93
2024/03/01 15:10:47;;;;;;;0.00;0.00;;;;;;;;;;4967857;28;20035;-93
2024/03/01 15:13:22;;;;;;;0.00;0.00;;;;;;;;;;4965605;28;20045;-93
2024/03/01 15:15:49;;;;;;;0.00;0.00;;;;;;;;;;4968814;28;20393;-92
2024/03/01 15:18:18;;;;;;;0.00;0.00;;;11.90;99.90;;;;;;4968953;28;20046;-92
2024/03/01 15:20:44;;;;;;;0.00;0.00;;;;;;;;;;4967138;28;20125;-93
2024/03/01 15:23:11;;;;;;;0.00;0.00;;;;;;;;;;4969270;28;20329;-93
2024/03/01 15:25:37;;;;;;;0.00;0.00;;;;;;;;;;4968908;28;20039;-93
2024/03/01 15:28:03;;;;;;;0.00;0.00;;;;;;;;;;4981220;28;20030;-93
2024/03/01 15:30:31;;;;;;;0.00;0.00;;;11.60;99.90;;;;;;4963566;28;20086;-93
2024/03/01 15:32:57;;;;;;;0.00;0.00;;;11.70;99.90;;;;;;4982026;28;20111;-93
2024/03/01 15:35:25;;;;;;;0.00;0.00;;;;;;;;;;4967677;28;20034;-93
2024/03/01 15:37:52;;;;;;;0.00;0.00;;;;;;;;;;4966189;28;20034;-93
2024/03/01 15:40:18;;;;;;;0.00;0.00;;;;;;;;;;4968116;28;20034;-94